Singkawang, Indonesia

10:16 PM CIT on August 27, 2014 (GMT +0800)
Kuching International | Change Station
CLOSE
Current Station
Airport
Location: Kuching,
Elevation: 89 ft
Nearby Weather Stations

Elev 89 ft 1.48 °N, 110.33 °E | Updated 16 minutes ago

Mostly Cloudy
Mostly Cloudy
75 °F
Feels Like 75 °F
N
1
Wind Variable Wind from South

Today
High -- | Low -- °F
--% Chance of Precip.
Yesterday
High -- | Low -- °F
Precip. -- in
6:38 AM 6:47 PM
Waxing Crescent, 4% visible
Pressure 29.83 in
Visibility 6.2 miles
Clouds Few 200 ft
Scattered Clouds 2000 ft
Mostly Cloudy 15000 ft
Dew Point 73 °F
Humidity 94%
Rainfall 0.00 in
Snow Depth Not available.
UV 0 out of 12
Pollen Not available.
Air Quality Not available.
Flu Activity Not available.
METAR WBGG 271400Z 18001KT 9999 FEW002 SCT020 BKN150 24/23 Q1010 NOSIG

More Conditions Fewer Conditions

Pressure 29.83 in
Visibility 6.2 miles
Clouds Few 200 ft
Scattered Clouds 2000 ft
Mostly Cloudy 15000 ft
Dew Point 73 °F
Humidity 94%
Rainfall 0.00 in
Snow Depth Not available.
UV 0 out of 12
Pollen Not available.
Air Quality Not available.
Flu Activity Not available.
METAR WBGG 271400Z 18001KT 9999 FEW002 SCT020 BKN150 24/23 Q1010 NOSIG

More Conditions Fewer Conditions

10-Day Weather Forecast

Almanac

Astronomy

Aug. 27, 2014 Rise Set
Actual Time 6:38 AM CIT 6:47 PM CIT
Civil Twilight 6:17 AM CIT 7:08 PM CIT
Nautical Twilight 5:53 AM CIT 7:32 PM CIT
Astronomical Twilight 5:29 AM CIT 7:56 PM CIT
Moon 7:35 AM CIT 7:56 PM CIT
Length of Visible Light 12h 50m
Length of Day
12h 08m
Tomorrow will be 0m 4s shorter.
Waxing Crescent, 4% of the Moon is Illuminated
Today
Waxing Crescent
Sep 2
First Quarter
Sep 8
Full
Sep 15
Last Quarter
Sep 24
New

Yesterday's Extremes

Country Highs Country Lows

Community

WunderPhotos

Upload Photos

1,747,690 photos uploaded!

Nearby

Snow Depth

Not available.

Earthquake Activity

City Distance Mag. Time & Date
No recent earthquake activity has been reported nearby.
Minimum magnitude displayed is 2.5.

Coastal Water Temperatures

Place Temperature
No Stations Reporting

Nearby Weather Stations